ロンドン/ヒースロー の空港の天気 - METARとTAF

ロンドン・ヒースロー空港 ( EGLL / LHR ) - イギリス ロンドン
飛行場実況気象(Metar)
観測時間08/11 06:50 BST (08/11 05:50 UTC)
風向・風速不定 1m/s
視程9000m
天気現象
なし
気温21℃
湿度78%
気圧1015hPa
METAREGLL 110550Z AUTO VRB01KT 9000 NCD 21/17 Q1015 NOSIG
過去の天気等 Google飛行場航空写真 Wunderground天気予報

過去48時間のMETAR

飛行場予報(TAF)
発表時間: 8/11 05:53 BST (8/11 04:53 UTC)
予報対象時間: 11日7時 BST ~ 12日13時 BST
風向・風速東 3m/s
視程10km以上
なし
11日7時 BST ~ 11日10時 BST に 確率 40% で一時的に
視程8000m
11日12時 BST ~ 11日21時 BST に 確率 30% で一時的に
視程7000m
天気現象しゅう雨
12日12時 BST ~ 12日13時 BST に 確率 30% で一時的に
視程7000m
天気現象しゅう雨
TAF EGLL 110453Z 1106/1212 09005KT CAVOK
PROB40 TEMPO 1106/1109 8000
PROB30 TEMPO 1111/1120 7000 SHRA
PROB30 TEMPO 1211/1212 7000 SHRA